Centertown, Missouri
Current Conditions -  °F | °C
As of 11:53 AM on Wednesday 26 Nov 2014 (Local Time) from KJEF Reporting Station
Overcast Overcast  
Wind Chill: 33°   Ceiling: 1500
Heat Index: 39°   Visibility: 10mi
Dew Point: 36°   Wind: 8mph
Humidity: 89%   Direction: 240°WSW
Pressure: 29.96"   Gusts: NA
Location:  38.62°N, 92.41°W
Report Text: KJEF 261753Z 24007KT 10SM BKN015 OVC022 04/02 A2996 RMK AO2 SLP141 6//// T00390022 10039 21022 $
Loading
Personal Weather Stations






























Interactive Weather Map New forecast layout! Learn more

10-Day Weather Forecast

Advertisements
Track Severe Weather on mobile